Time;durP1;ratioP1;P1;durP2;ratioP2;P2;SDS_P1;SDS_P2;PMS_P1;PMS_P2;Temp;Humidity;BMP_temperature;BMP_pressure;BME280_temperature;BME280_humidity;BME280_pressure;Samples;Min_cycle;Max_cycle;Signal;HPM_P1;HPM_P2
2022/01/15 00:02:29;;;;;;;63.97;17.80;;;;;;;;;;6205114;23;20243;-91
2022/01/15 00:05:35;;;;;;;59.87;16.03;;;;;;;;;;6204539;23;20168;-92
2022/01/15 00:08:40;;;;;;;63.40;18.33;;;;;;;;;;6202544;23;20188;-92
2022/01/15 00:11:46;;;;;;;67.97;17.70;;;;;;;;;;6203712;23;20156;-91
2022/01/15 00:14:52;;;;;;;54.77;15.90;;;;;;;;;;6202055;23;20240;-90
2022/01/15 00:18:01;;;;;;;69.23;18.93;;;;;;;;;;6202247;23;20199;-91
2022/01/15 00:21:06;;;;;;;64.40;18.57;;;;;;;;;;6203948;23;20252;-91
2022/01/15 00:24:15;;;;;;;59.63;16.53;;;;;;;;;;6203038;23;20175;-90
2022/01/15 00:27:20;;;;;;;67.83;18.53;;;;;;;;;;6203036;23;20168;-89
2022/01/15 00:30:26;;;;;;;69.23;18.17;;;;;;;;;;6202517;23;20163;-91
2022/01/15 00:33:33;;;;;;;65.03;16.50;;;;;;;;;;6204893;23;20208;-91
2022/01/15 00:36:38;;;;;;;63.97;18.23;;;;;;;;;;6203683;23;20164;-91
2022/01/15 00:39:44;;;;;;;54.87;15.47;;;;;;;;;;6203656;23;20164;-91
2022/01/15 00:42:50;;;;;;;61.03;17.30;;;;;;;;;;6203235;23;20199;-92
2022/01/15 00:45:57;;;;;;;60.13;16.60;;;;;;;;;;6205270;23;20201;-90
2022/01/15 00:49:03;;;;;;;51.60;16.53;;;;;;;;;;6204497;23;20274;-91
2022/01/15 00:52:10;;;;;;;52.50;15.73;;;;;;;;;;6204825;23;20215;-91
2022/01/15 00:55:15;;;;;;;63.77;16.43;;;;;;;;;;6205395;23;20240;-91
2022/01/15 00:58:21;;;;;;;60.67;17.30;;;;;;;;;;6205736;23;20216;-91
2022/01/15 01:01:27;;;;;;;61.27;17.40;;;;;;;;;;6204057;23;20241;-90
2022/01/15 01:04:34;;;;;;;58.10;17.90;;;;;;;;;;6204303;23;20246;-91
2022/01/15 01:07:40;;;;;;;64.70;16.90;;;;;;;;;;6206405;23;20167;-90
2022/01/15 01:10:55;;;;;;;65.27;18.03;;;;;;;;;;6206182;23;20236;-89
2022/01/15 01:21:02;;;;;;;68.90;18.37;;;;;;;;;;6206810;23;20199;-91
2022/01/15 01:24:07;;;;;;;62.90;17.27;;;;;;;;;;6204921;23;20200;-92
2022/01/15 01:27:17;;;;;;;73.23;20.60;;;;;;;;;;6203210;23;20163;-92
2022/01/15 01:30:27;;;;;;;53.67;15.90;;;;;;;;;;6204560;23;20248;-91
2022/01/15 01:33:35;;;;;;;56.97;17.57;;;;;;;;;;6206144;23;20215;-90
2022/01/15 01:36:49;;;;;;;56.77;16.77;;;;;;;;;;6205567;23;20220;-91
2022/01/15 01:40:07;;;;;;;55.40;16.63;;;;;;;;;;6206095;23;20172;-91
2022/01/15 01:43:42;;;;;;;52.70;15.30;;;;;;;;;;6205246;23;20201;-90
2022/01/15 01:46:52;;;;;;;58.17;16.33;;;;;;;;;;6207046;23;20248;-89
2022/01/15 01:49:57;;;;;;;52.93;16.37;;;;;;;;;;6206476;23;20240;-92
2022/01/15 01:53:06;;;;;;;57.90;16.57;;;;;;;;;;6205961;23;20223;-92
2022/01/15 01:56:11;;;;;;;58.23;14.20;;;;;;;;;;6205995;23;20160;-92
2022/01/15 01:59:25;;;;;;;53.30;16.27;;;;;;;;;;6205068;23;20180;-91
2022/01/15 02:02:30;;;;;;;49.87;14.90;;;;;;;;;;6205602;23;20168;-91
2022/01/15 02:05:36;;;;;;;55.13;15.80;;;;;;;;;;6205516;23;20199;-91
2022/01/15 02:08:42;;;;;;;47.80;15.10;;;;;;;;;;6205155;23;20160;-91
2022/01/15 02:11:47;;;;;;;56.10;17.30;;;;;;;;;;6206315;23;20283;-91
2022/01/15 02:14:53;;;;;;;48.43;14.70;;;;;;;;;;6205062;23;20171;-91
2022/01/15 02:17:58;;;;;;;49.47;14.20;;;;;;;;;;6204792;23;20167;-92
2022/01/15 02:24:29;;;;;;;44.53;14.60;;;;;;;;;;6205728;23;20259;-90
2022/01/15 02:54:00;;;;;;;53.70;15.03;;;;;;;;;;6198393;22;20243;-90
2022/01/15 02:57:06;;;;;;;56.80;15.60;;;;;;;;;;6243529;22;20282;-93
2022/01/15 03:00:12;;;;;;;56.20;15.63;;;;;;;;;;6246814;23;20224;-90
2022/01/15 03:03:17;;;;;;;49.90;14.83;;;;;;;;;;6244895;23;20606;-91
2022/01/15 03:06:23;;;;;;;53.43;14.60;;;;;;;;;;6244913;23;20165;-91
2022/01/15 03:09:30;;;;;;;60.53;16.53;;;;;;;;;;6246507;22;20175;-90
2022/01/15 03:12:35;;;;;;;57.57;16.67;;;;;;;;;;6244789;23;20166;-91
2022/01/15 03:15:41;;;;;;;54.03;15.47;;;;;;;;;;6244662;22;20257;-90
2022/01/15 03:18:47;;;;;;;50.00;14.77;;;;;;;;;;6245095;23;20166;-91
2022/01/15 03:21:52;;;;;;;51.50;15.90;;;;;;;;;;6244479;23;20158;-91
2022/01/15 03:25:09;;;;;;;60.17;15.83;;;;;;;;;;6246339;22;20206;-92
2022/01/15 03:28:14;;;;;;;52.87;16.03;;;;;;;;;;6245286;23;20210;-90
2022/01/15 03:31:19;;;;;;;50.13;15.47;;;;;;;;;;6247703;23;20166;-90
2022/01/15 03:34:26;;;;;;;48.60;14.43;;;;;;;;;;6247045;23;20170;-90
2022/01/15 03:37:31;;;;;;;51.90;14.73;;;;;;;;;;6247294;23;20167;-91
2022/01/15 03:40:38;;;;;;;51.50;15.47;;;;;;;;;;6246445;23;20166;-92
2022/01/15 03:43:43;;;;;;;50.90;14.67;;;;;;;;;;6246770;22;20170;-91
2022/01/15 03:46:48;;;;;;;54.30;16.00;;;;;;;;;;6243846;22;20174;-91
2022/01/15 03:49:54;;;;;;;71.50;17.43;;;;;;;;;;6248281;23;20170;-91
2022/01/15 03:52:59;;;;;;;58.63;15.60;;;;;;;;;;6246903;23;20194;-90
2022/01/15 03:56:06;;;;;;;56.20;16.07;;;;;;;;;;6247475;23;20169;-91
2022/01/15 03:59:12;;;;;;;53.13;13.97;;;;;;;;;;6247317;23;20166;-90
2022/01/15 04:02:17;;;;;;;66.27;16.03;;;;;;;;;;6246550;22;20161;-90
2022/01/15 04:05:26;;;;;;;50.80;14.97;;;;;;;;;;6245949;23;20178;-90
2022/01/15 04:08:32;;;;;;;48.07;14.17;;;;;;;;;;6244159;22;20214;-92
2022/01/15 04:11:39;;;;;;;61.33;16.13;;;;;;;;;;6245254;23;20178;-91
2022/01/15 04:14:44;;;;;;;48.20;15.17;;;;;;;;;;6244581;23;20170;-90
2022/01/15 04:17:49;;;;;;;56.70;14.33;;;;;;;;;;6246317;23;20171;-90
2022/01/15 04:20:58;;;;;;;57.57;15.40;;;;;;;;;;6245354;23;20154;-93
2022/01/15 04:24:03;;;;;;;48.90;14.80;;;;;;;;;;6245541;23;20214;-93
2022/01/15 04:27:09;;;;;;;43.60;13.43;;;;;;;;;;6244416;23;20226;-92
2022/01/15 04:30:15;;;;;;;54.07;14.17;;;;;;;;;;6244313;23;20174;-93
2022/01/15 04:33:20;;;;;;;45.57;13.37;;;;;;;;;;6245320;23;20190;-91
2022/01/15 04:36:26;;;;;;;36.30;12.10;;;;;;;;;;6246593;22;20205;-92
2022/01/15 04:39:31;;;;;;;41.23;13.43;;;;;;;;;;6245965;23;20158;-91
2022/01/15 04:42:39;;;;;;;43.67;13.80;;;;;;;;;;6245712;23;20170;-91
2022/01/15 04:45:46;;;;;;;49.73;14.53;;;;;;;;;;6246792;23;20174;-91
2022/01/15 04:48:52;;;;;;;52.43;14.40;;;;;;;;;;6246572;23;20223;-92
2022/01/15 04:51:57;;;;;;;49.53;13.77;;;;;;;;;;6247627;22;20158;-91
2022/01/15 04:55:02;;;;;;;45.73;12.77;;;;;;;;;;6245714;22;20269;-92
2022/01/15 04:58:09;;;;;;;49.27;14.47;;;;;;;;;;6249353;22;20199;-92
2022/01/15 05:01:41;;;;;;;42.67;13.53;;;;;;;;;;6248810;23;20235;-92
2022/01/15 05:04:47;;;;;;;45.57;12.77;;;;;;;;;;6247941;22;20186;-91
2022/01/15 05:07:53;;;;;;;45.77;12.73;;;;;;;;;;6248473;22;20367;-93
2022/01/15 05:11:00;;;;;;;45.37;14.93;;;;;;;;;;6249048;23;20203;-91
2022/01/15 05:14:09;;;;;;;41.60;13.60;;;;;;;;;;6247961;23;20217;-92
2022/01/15 05:17:15;;;;;;;43.13;12.37;;;;;;;;;;6247771;23;20170;-90
2022/01/15 05:20:22;;;;;;;42.10;13.17;;;;;;;;;;6246144;22;20205;-92
2022/01/15 05:23:27;;;;;;;49.43;15.37;;;;;;;;;;6246291;22;20174;-91
2022/01/15 05:26:32;;;;;;;55.73;15.33;;;;;;;;;;6246004;23;20206;-91
2022/01/15 05:29:39;;;;;;;50.10;14.33;;;;;;;;;;6245846;23;20181;-93
2022/01/15 05:32:45;;;;;;;51.20;15.23;;;;;;;;;;6244096;23;20166;-92
2022/01/15 05:35:50;;;;;;;42.73;13.33;;;;;;;;;;6242442;22;20198;-91
2022/01/15 05:38:55;;;;;;;46.93;14.77;;;;;;;;;;6249111;22;20150;-92
2022/01/15 05:42:00;;;;;;;60.90;16.97;;;;;;;;;;6246789;22;20178;-90
2022/01/15 05:45:08;;;;;;;57.00;15.73;;;;;;;;;;6246328;22;20190;-91
2022/01/15 05:48:14;;;;;;;47.00;14.57;;;;;;;;;;6248086;23;20217;-92
2022/01/15 05:51:20;;;;;;;53.40;15.23;;;;;;;;;;6247123;23;20170;-92
2022/01/15 05:54:25;;;;;;;41.47;13.30;;;;;;;;;;6247033;23;20193;-91
2022/01/15 05:57:34;;;;;;;44.27;14.80;;;;;;;;;;6247271;22;20154;-91
2022/01/15 06:00:42;;;;;;;43.33;13.60;;;;;;;;;;6248764;22;20166;-91
2022/01/15 06:03:47;;;;;;;49.03;14.00;;;;;;;;;;6249936;23;20200;-90
2022/01/15 06:06:52;;;;;;;42.77;14.30;;;;;;;;;;6246723;23;20653;-91
2022/01/15 06:09:58;;;;;;;43.00;12.77;;;;;;;;;;6246664;23;20174;-91
2022/01/15 06:13:03;;;;;;;48.17;14.07;;;;;;;;;;6247331;22;20162;-91
2022/01/15 06:16:10;;;;;;;47.50;14.73;;;;;;;;;;6244506;23;20170;-91
2022/01/15 06:19:15;;;;;;;49.93;14.30;;;;;;;;;;6246021;22;20171;-91
2022/01/15 06:22:20;;;;;;;52.60;15.03;;;;;;;;;;6246646;23;20175;-92
2022/01/15 06:25:25;;;;;;;46.00;14.40;;;;;;;;;;6245039;23;20190;-92
2022/01/15 06:28:32;;;;;;;43.07;14.40;;;;;;;;;;6245516;22;20205;-92
2022/01/15 06:31:38;;;;;;;52.67;13.63;;;;;;;;;;6246853;22;20142;-91
2022/01/15 06:34:44;;;;;;;50.57;13.10;;;;;;;;;;6245396;23;20166;-91
2022/01/15 06:37:54;;;;;;;40.27;13.63;;;;;;;;;;6244824;23;20215;-93
2022/01/15 06:41:00;;;;;;;44.97;12.93;;;;;;;;;;6245988;23;20262;-90
2022/01/15 06:44:05;;;;;;;45.40;13.73;;;;;;;;;;6245961;23;20232;-91
2022/01/15 06:47:12;;;;;;;40.37;13.43;;;;;;;;;;6245965;22;20170;-90
2022/01/15 06:50:17;;;;;;;41.43;12.50;;;;;;;;;;6246097;23;20215;-89
2022/01/15 06:53:23;;;;;;;46.80;15.00;;;;;;;;;;6246989;23;20217;-89
2022/01/15 06:56:31;;;;;;;44.53;13.20;;;;;;;;;;6247388;22;20167;-90
2022/01/15 06:59:37;;;;;;;40.97;12.73;;;;;;;;;;6245808;23;20214;-91
2022/01/15 07:02:44;;;;;;;39.10;12.47;;;;;;;;;;6245999;23;20285;-90
2022/01/15 07:05:49;;;;;;;44.27;13.67;;;;;;;;;;6246160;23;20189;-91
2022/01/15 07:08:54;;;;;;;48.07;14.30;;;;;;;;;;6245877;23;20174;-91
2022/01/15 07:11:59;;;;;;;41.37;13.27;;;;;;;;;;6245654;23;20178;-90
2022/01/15 07:15:05;;;;;;;41.00;13.20;;;;;;;;;;6245882;23;20166;-91
2022/01/15 07:18:13;;;;;;;42.17;13.17;;;;;;;;;;6244831;23;20214;-89
2022/01/15 07:21:19;;;;;;;42.90;14.07;;;;;;;;;;6246938;22;20186;-91
2022/01/15 07:24:24;;;;;;;48.00;14.80;;;;;;;;;;6246757;23;20158;-90
2022/01/15 07:27:29;;;;;;;43.53;13.57;;;;;;;;;;6244305;23;20214;-92
2022/01/15 07:30:35;;;;;;;51.30;16.10;;;;;;;;;;6247691;22;20150;-91
2022/01/15 07:33:42;;;;;;;46.67;15.23;;;;;;;;;;6245017;23;20629;-90
2022/01/15 07:36:52;;;;;;;51.63;14.60;;;;;;;;;;6245009;22;20230;-90
2022/01/15 07:39:58;;;;;;;45.43;15.30;;;;;;;;;;6245974;22;20171;-91
2022/01/15 07:43:03;;;;;;;47.97;16.33;;;;;;;;;;6244124;23;20231;-90
2022/01/15 07:46:08;;;;;;;43.87;13.80;;;;;;;;;;6244729;23;20237;-91
2022/01/15 07:49:16;;;;;;;46.17;14.63;;;;;;;;;;6244950;23;20174;-91
2022/01/15 07:55:40;;;;;;;42.70;13.67;;;;;;;;;;6246075;23;20218;-91
2022/01/15 07:58:46;;;;;;;46.10;14.27;;;;;;;;;;6245878;23;20170;-91
2022/01/15 08:01:53;;;;;;;47.20;14.80;;;;;;;;;;6245312;23;20229;-91
2022/01/15 08:04:59;;;;;;;48.30;15.13;;;;;;;;;;6246050;23;20184;-92
2022/01/15 08:08:05;;;;;;;50.40;15.00;;;;;;;;;;6245971;23;20150;-90
2022/01/15 08:11:11;;;;;;;50.93;14.67;;;;;;;;;;6246910;23;20187;-90
2022/01/15 08:14:16;;;;;;;44.60;14.37;;;;;;;;;;6247785;23;20205;-91
2022/01/15 08:17:21;;;;;;;60.13;15.27;;;;;;;;;;6246723;23;20217;-90
2022/01/15 08:20:30;;;;;;;45.47;13.70;;;;;;;;;;6247072;23;20170;-90
2022/01/15 08:23:38;;;;;;;55.03;15.23;;;;;;;;;;6245974;23;20609;-90
2022/01/15 08:26:45;;;;;;;47.90;14.50;;;;;;;;;;6244704;22;20210;-90
2022/01/15 08:29:50;;;;;;;60.40;16.37;;;;;;;;;;6246904;22;20238;-90
2022/01/15 08:32:56;;;;;;;50.00;14.50;;;;;;;;;;6246798;22;20170;-90
2022/01/15 08:36:04;;;;;;;49.37;15.37;;;;;;;;;;6245591;23;20221;-91
2022/01/15 08:39:15;;;;;;;57.13;18.10;;;;;;;;;;6245708;22;20147;-90
2022/01/15 08:42:20;;;;;;;55.23;17.03;;;;;;;;;;6247215;22;20150;-90
2022/01/15 08:45:26;;;;;;;52.13;15.93;;;;;;;;;;6245840;22;20167;-90
2022/01/15 08:48:31;;;;;;;61.70;16.87;;;;;;;;;;6246346;22;20497;-89
2022/01/15 08:51:38;;;;;;;61.33;15.97;;;;;;;;;;6246603;23;20606;-90
2022/01/15 08:54:44;;;;;;;52.00;14.63;;;;;;;;;;6245940;23;20181;-92
2022/01/15 08:57:50;;;;;;;50.10;14.30;;;;;;;;;;6230122;23;20182;-91
2022/01/15 09:00:57;;;;;;;59.53;16.47;;;;;;;;;;6246249;23;20154;-92
2022/01/15 09:04:02;;;;;;;40.50;11.97;;;;;;;;;;6245524;23;20178;-91
2022/01/15 09:07:10;;;;;;;52.20;15.97;;;;;;;;;;6248993;23;20237;-91
2022/01/15 09:10:15;;;;;;;58.80;16.50;;;;;;;;;;6248715;23;20186;-91
2022/01/15 09:13:20;;;;;;;62.33;16.80;;;;;;;;;;6247782;23;20162;-91
2022/01/15 09:19:55;;;;;;;49.97;13.50;;;;;;;;;;6248113;23;20214;-91
2022/01/15 09:23:03;;;;;;;58.87;15.50;;;;;;;;;;6247558;23;20166;-92
2022/01/15 09:26:19;;;;;;;56.77;14.97;;;;;;;;;;6246006;23;20206;-90
2022/01/15 09:32:50;;;;;;;66.37;17.93;;;;;;;;;;6248799;23;20151;-89
2022/01/15 09:35:56;;;;;;;67.40;19.80;;;;;;;;;;6246959;23;20222;-89
2022/01/15 09:39:03;;;;;;;64.27;16.67;;;;;;;;;;6245997;23;20239;-91
2022/01/15 09:42:09;;;;;;;56.70;15.37;;;;;;;;;;6249805;23;20191;-91
2022/01/15 09:45:16;;;;;;;55.47;14.77;;;;;;;;;;6247287;22;20165;-90
2022/01/15 09:48:27;;;;;;;56.17;15.07;;;;;;;;;;6250575;22;20159;-89
2022/01/15 09:54:55;;;;;;;51.53;15.00;;;;;;;;;;6248522;23;20206;-92
2022/01/15 09:58:01;;;;;;;56.93;16.77;;;;;;;;;;6248724;23;20170;-89
2022/01/15 10:01:06;;;;;;;44.67;12.90;;;;;;;;;;6249098;23;20163;-91
2022/01/15 10:04:14;;;;;;;58.87;16.97;;;;;;;;;;6249664;23;20200;-90
2022/01/15 10:07:22;;;;;;;60.07;15.90;;;;;;;;;;6232571;22;20270;-91
2022/01/15 10:10:30;;;;;;;54.20;15.93;;;;;;;;;;6250416;23;20221;-93
2022/01/15 10:17:07;;;;;;;63.67;16.40;;;;;;;;;;6251401;23;20209;-91
2022/01/15 10:20:14;;;;;;;57.40;15.93;;;;;;;;;;6248786;22;20173;-91
2022/01/15 10:23:21;;;;;;;52.37;14.97;;;;;;;;;;6249210;23;20487;-92
2022/01/15 10:26:31;;;;;;;45.93;14.80;;;;;;;;;;6246962;23;20178;-91
2022/01/15 10:29:43;;;;;;;49.13;15.73;;;;;;;;;;6251629;23;20199;-92
2022/01/15 10:33:06;;;;;;;44.77;15.90;;;;;;;;;;6248909;23;20178;-93
2022/01/15 10:36:19;;;;;;;42.10;13.30;;;;;;;;;;6249376;22;20203;-92
2022/01/15 10:39:26;;;;;;;39.07;11.47;;;;;;;;;;6247130;23;20204;-92
2022/01/15 10:42:38;;;;;;;48.73;14.77;;;;;;;;;;6251159;22;20218;-92
2022/01/15 10:49:24;;;;;;;48.93;15.27;;;;;;;;;;6253308;22;20213;-92
2022/01/15 10:52:32;;;;;;;49.60;14.90;;;;;;;;;;6252280;22;20186;-90
2022/01/15 10:55:39;;;;;;;54.70;16.20;;;;;;;;;;6251420;22;20178;-91
2022/01/15 11:05:54;;;;;;;51.37;16.23;;;;;;;;;;6252011;22;20150;-91
2022/01/15 11:51:30;;;;;;;57.77;17.97;;;;;;;;;;6235709;22;20678;-91
2022/01/15 11:54:36;;;;;;;52.27;16.00;;;;;;;;;;6249004;23;20215;-90
2022/01/15 11:57:56;;;;;;;53.47;16.43;;;;;;;;;;6249572;22;20170;-92
2022/01/15 12:01:02;;;;;;;56.77;18.67;;;;;;;;;;6249543;22;20302;-90
2022/01/15 12:04:29;;;;;;;55.97;18.37;;;;;;;;;;6249284;22;20146;-91
2022/01/15 12:07:49;;;;;;;58.53;18.00;;;;;;;;;;6248978;22;20195;-91
2022/01/15 12:11:01;;;;;;;61.37;20.03;;;;;;;;;;6247806;22;20186;-90
2022/01/15 12:14:11;;;;;;;59.03;19.03;;;;;;;;;;6247836;22;20597;-90
2022/01/15 12:17:26;;;;;;;58.00;18.40;;;;;;;;;;6247868;22;20146;-90
2022/01/15 23:06:48;;;;;;;38.53;11.87;;;;;;;;;;6226571;22;20211;-91
2022/01/15 23:09:54;;;;;;;27.33;11.60;;;;;;;;;;6238971;23;20190;-90
2022/01/15 23:13:07;;;;;;;32.80;11.97;;;;;;;;;;6237781;23;20172;-90
2022/01/15 23:16:35;;;;;;;30.30;11.77;;;;;;;;;;6238754;23;20175;-91
2022/01/15 23:19:39;;;;;;;32.30;11.43;;;;;;;;;;6238776;23;20226;-90
2022/01/15 23:22:47;;;;;;;35.07;10.27;;;;;;;;;;6238943;23;20167;-89
2022/01/15 23:25:56;;;;;;;78.47;13.30;;;;;;;;;;6239229;23;20167;-90
2022/01/15 23:29:03;;;;;;;45.17;12.57;;;;;;;;;;6237243;23;20170;-90
2022/01/15 23:32:12;;;;;;;84.43;13.07;;;;;;;;;;6238851;23;20224;-89
2022/01/15 23:35:17;;;;;;;66.13;13.03;;;;;;;;;;6237710;23;20191;-91
2022/01/15 23:38:33;;;;;;;31.47;11.60;;;;;;;;;;6236873;23;20214;-92
2022/01/15 23:41:40;;;;;;;26.53;11.17;;;;;;;;;;6236458;23;20179;-91
2022/01/15 23:44:55;;;;;;;32.57;12.37;;;;;;;;;;6236649;23;20668;-89
2022/01/15 23:48:00;;;;;;;35.90;11.63;;;;;;;;;;6237107;23;20203;-89
2022/01/15 23:51:07;;;;;;;35.87;10.83;;;;;;;;;;6230927;22;20213;-90
2022/01/15 23:54:22;;;;;;;32.07;10.17;;;;;;;;;;6249890;23;20154;-90
2022/01/15 23:57:28;;;;;;;34.03;10.93;;;;;;;;;;6249457;23;20198;-91
